DTTK

Kairouan Airport

Kairouan, Tunisia
METAR DTTK 152000Z 06002KT CAVOK 32/18 Q1015
Observed Flight Rules
Jul-15 @ 20:00 UTC (55 minutes ago) Visual Flight Rules
Wind Visibility Clouds
60° at 2 knots 10,000+ meters
  • Clear skies
Temperatures Readings
Current 32°C / 90°F
Dewpoint 18°C / 64°F
Humidity 43%
Altimeter 29.97" Hg
Pressure 1015 hPa
Elevation 68
METAR DTTK 152000Z 06002KT CAVOK 32/18 Q1015
Observed Flight Rules
Jul-15 @ 20:00 UTC
(55 minutes ago)
VFR
Wind Visibility
60° at 2 knots 10,000+ meters
Clouds
  • Clear skies
Temperature Dewpoint
32°C / 90°F 18°C / 64°F
Humidity Altimeter Pressure
43% 29.97" Hg 1015 hPa